sensor_id;sensor_type;location;lat;lon;timestamp;P1;durP1;ratioP1;P2;durP2;ratioP2
69334;SDS011;56477;52.742;15.242;2022-11-18T00:01:55;21.97;;;6.97;;
69334;SDS011;56477;52.742;15.242;2022-11-18T00:04:21;26.27;;;10.18;;
69334;SDS011;56477;52.742;15.242;2022-11-18T00:06:47;26.60;;;10.43;;
69334;SDS011;56477;52.742;15.242;2022-11-18T00:09:13;20.23;;;7.88;;
69334;SDS011;56477;52.742;15.242;2022-11-18T00:11:39;23.30;;;9.03;;
69334;SDS011;56477;52.742;15.242;2022-11-18T00:14:24;23.92;;;9.02;;
69334;SDS011;56477;52.742;15.242;2022-11-18T00:19:26;20.90;;;7.78;;
69334;SDS011;56477;52.742;15.242;2022-11-18T00:21:56;23.90;;;9.60;;
69334;SDS011;56477;52.742;15.242;2022-11-18T00:24:23;22.97;;;9.03;;
69334;SDS011;56477;52.742;15.242;2022-11-18T00:26:50;27.60;;;9.00;;
69334;SDS011;56477;52.742;15.242;2022-11-18T00:29:16;29.75;;;10.82;;
69334;SDS011;56477;52.742;15.242;2022-11-18T00:31:43;22.55;;;9.27;;
69334;SDS011;56477;52.742;15.242;2022-11-18T00:34:10;25.88;;;9.77;;
69334;SDS011;56477;52.742;15.242;2022-11-18T00:36:38;23.20;;;8.30;;
69334;SDS011;56477;52.742;15.242;2022-11-18T00:39:04;17.38;;;6.07;;
69334;SDS011;56477;52.742;15.242;2022-11-18T00:41:30;19.10;;;6.93;;
69334;SDS011;56477;52.742;15.242;2022-11-18T00:44:15;19.27;;;7.47;;
69334;SDS011;56477;52.742;15.242;2022-11-18T00:46:41;27.95;;;9.80;;
69334;SDS011;56477;52.742;15.242;2022-11-18T00:49:08;24.80;;;10.23;;
69334;SDS011;56477;52.742;15.242;2022-11-18T00:51:34;24.63;;;9.70;;
69334;SDS011;56477;52.742;15.242;2022-11-18T00:54:01;25.38;;;9.35;;
69334;SDS011;56477;52.742;15.242;2022-11-18T00:56:27;25.80;;;9.73;;
69334;SDS011;56477;52.742;15.242;2022-11-18T00:58:53;24.85;;;9.93;;
69334;SDS011;56477;52.742;15.242;2022-11-18T01:01:19;25.00;;;9.40;;
69334;SDS011;56477;52.742;15.242;2022-11-18T01:03:45;24.95;;;10.18;;
69334;SDS011;56477;52.742;15.242;2022-11-18T01:06:11;22.88;;;8.38;;
69334;SDS011;56477;52.742;15.242;2022-11-18T01:08:38;15.70;;;6.18;;
69334;SDS011;56477;52.742;15.242;2022-11-18T01:11:04;24.77;;;9.52;;
69334;SDS011;56477;52.742;15.242;2022-11-18T01:13:49;21.70;;;9.13;;
69334;SDS011;56477;52.742;15.242;2022-11-18T01:16:20;26.50;;;7.93;;
69334;SDS011;56477;52.742;15.242;2022-11-18T01:18:48;26.85;;;10.57;;
69334;SDS011;56477;52.742;15.242;2022-11-18T01:21:14;25.00;;;9.40;;
69334;SDS011;56477;52.742;15.242;2022-11-18T01:23:41;22.30;;;7.78;;
69334;SDS011;56477;52.742;15.242;2022-11-18T01:26:08;27.40;;;9.47;;
69334;SDS011;56477;52.742;15.242;2022-11-18T01:28:35;26.02;;;9.45;;
69334;SDS011;56477;52.742;15.242;2022-11-18T01:31:02;17.42;;;6.65;;
69334;SDS011;56477;52.742;15.242;2022-11-18T01:33:33;25.77;;;9.10;;
69334;SDS011;56477;52.742;15.242;2022-11-18T01:35:59;25.17;;;9.10;;
69334;SDS011;56477;52.742;15.242;2022-11-18T01:38:26;27.88;;;10.85;;
69334;SDS011;56477;52.742;15.242;2022-11-18T01:40:55;28.15;;;9.13;;
69334;SDS011;56477;52.742;15.242;2022-11-18T01:43:22;26.08;;;10.38;;
69334;SDS011;56477;52.742;15.242;2022-11-18T01:45:49;18.50;;;7.90;;
69334;SDS011;56477;52.742;15.242;2022-11-18T01:51:05;25.27;;;9.77;;
69334;SDS011;56477;52.742;15.242;2022-11-18T01:53:37;29.27;;;9.27;;
69334;SDS011;56477;52.742;15.242;2022-11-18T01:56:17;28.25;;;11.30;;
69334;SDS011;56477;52.742;15.242;2022-11-18T01:58:49;28.13;;;11.85;;
69334;SDS011;56477;52.742;15.242;2022-11-18T02:01:26;27.77;;;10.60;;
69334;SDS011;56477;52.742;15.242;2022-11-18T02:03:52;27.25;;;9.10;;
69334;SDS011;56477;52.742;15.242;2022-11-18T02:06:18;23.92;;;9.98;;
69334;SDS011;56477;52.742;15.242;2022-11-18T02:08:45;27.88;;;10.50;;
69334;SDS011;56477;52.742;15.242;2022-11-18T02:11:12;20.40;;;7.43;;
69334;SDS011;56477;52.742;15.242;2022-11-18T02:13:59;19.20;;;8.23;;
69334;SDS011;56477;52.742;15.242;2022-11-18T02:22:27;21.88;;;8.95;;
69334;SDS011;56477;52.742;15.242;2022-11-18T02:30:39;22.88;;;8.60;;
69334;SDS011;56477;52.742;15.242;2022-11-18T02:33:13;25.10;;;9.70;;
69334;SDS011;56477;52.742;15.242;2022-11-18T02:36:01;23.58;;;9.38;;
69334;SDS011;56477;52.742;15.242;2022-11-18T02:38:39;26.08;;;9.63;;
69334;SDS011;56477;52.742;15.242;2022-11-18T02:41:11;22.07;;;8.27;;
69334;SDS011;56477;52.742;15.242;2022-11-18T02:43:45;27.35;;;9.73;;
69334;SDS011;56477;52.742;15.242;2022-11-18T02:46:16;17.33;;;6.85;;
69334;SDS011;56477;52.742;15.242;2022-11-18T02:48:48;22.27;;;8.55;;
69334;SDS011;56477;52.742;15.242;2022-11-18T02:51:17;22.80;;;8.65;;
69334;SDS011;56477;52.742;15.242;2022-11-18T02:53:47;13.77;;;6.17;;
69334;SDS011;56477;52.742;15.242;2022-11-18T02:56:15;23.80;;;8.05;;
69334;SDS011;56477;52.742;15.242;2022-11-18T02:58:43;24.65;;;9.15;;
69334;SDS011;56477;52.742;15.242;2022-11-18T03:01:14;25.10;;;9.60;;
69334;SDS011;56477;52.742;15.242;2022-11-18T03:03:44;23.10;;;9.05;;
69334;SDS011;56477;52.742;15.242;2022-11-18T03:06:26;23.30;;;7.87;;
69334;SDS011;56477;52.742;15.242;2022-11-18T03:11:23;23.98;;;9.32;;
69334;SDS011;56477;52.742;15.242;2022-11-18T03:16:51;27.80;;;9.88;;
69334;SDS011;56477;52.742;15.242;2022-11-18T03:19:22;25.10;;;9.17;;
69334;SDS011;56477;52.742;15.242;2022-11-18T03:24:55;26.13;;;10.00;;
69334;SDS011;56477;52.742;15.242;2022-11-18T03:27:36;25.80;;;9.27;;
69334;SDS011;56477;52.742;15.242;2022-11-18T03:30:05;22.05;;;8.27;;
69334;SDS011;56477;52.742;15.242;2022-11-18T03:32:38;27.87;;;11.20;;
69334;SDS011;56477;52.742;15.242;2022-11-18T03:35:12;26.10;;;9.95;;
69334;SDS011;56477;52.742;15.242;2022-11-18T03:37:46;16.98;;;7.45;;
69334;SDS011;56477;52.742;15.242;2022-11-18T03:40:25;24.83;;;8.63;;
69334;SDS011;56477;52.742;15.242;2022-11-18T03:42:57;25.80;;;10.20;;
69334;SDS011;56477;52.742;15.242;2022-11-18T03:48:33;33.78;;;11.55;;
69334;SDS011;56477;52.742;15.242;2022-11-18T03:51:07;33.20;;;11.85;;
69334;SDS011;56477;52.742;15.242;2022-11-18T03:53:37;30.02;;;11.18;;
69334;SDS011;56477;52.742;15.242;2022-11-18T03:56:09;34.05;;;12.48;;
69334;SDS011;56477;52.742;15.242;2022-11-18T03:58:47;33.33;;;13.10;;
69334;SDS011;56477;52.742;15.242;2022-11-18T04:02:11;36.17;;;13.15;;
69334;SDS011;56477;52.742;15.242;2022-11-18T04:04:40;34.53;;;11.80;;
69334;SDS011;56477;52.742;15.242;2022-11-18T04:07:10;26.65;;;9.98;;
69334;SDS011;56477;52.742;15.242;2022-11-18T04:09:44;36.72;;;13.90;;
69334;SDS011;56477;52.742;15.242;2022-11-18T04:12:16;36.83;;;13.40;;
69334;SDS011;56477;52.742;15.242;2022-11-18T04:14:44;36.88;;;13.93;;
69334;SDS011;56477;52.742;15.242;2022-11-18T04:17:15;31.20;;;11.48;;
69334;SDS011;56477;52.742;15.242;2022-11-18T04:19:44;33.28;;;12.25;;
69334;SDS011;56477;52.742;15.242;2022-11-18T04:22:10;27.93;;;10.03;;
69334;SDS011;56477;52.742;15.242;2022-11-18T04:24:36;32.47;;;11.32;;
69334;SDS011;56477;52.742;15.242;2022-11-18T04:27:03;35.88;;;14.82;;
69334;SDS011;56477;52.742;15.242;2022-11-18T04:29:30;32.53;;;12.43;;
69334;SDS011;56477;52.742;15.242;2022-11-18T04:31:58;31.80;;;12.88;;
69334;SDS011;56477;52.742;15.242;2022-11-18T04:34:25;30.60;;;11.70;;
69334;SDS011;56477;52.742;15.242;2022-11-18T04:36:51;31.23;;;11.60;;
69334;SDS011;56477;52.742;15.242;2022-11-18T04:39:18;33.80;;;12.93;;
69334;SDS011;56477;52.742;15.242;2022-11-18T04:41:44;33.50;;;12.05;;
69334;SDS011;56477;52.742;15.242;2022-11-18T04:46:49;23.33;;;9.00;;
69334;SDS011;56477;52.742;15.242;2022-11-18T04:49:16;29.17;;;11.75;;
69334;SDS011;56477;52.742;15.242;2022-11-18T04:51:42;31.42;;;13.05;;
69334;SDS011;56477;52.742;15.242;2022-11-18T04:54:10;31.83;;;9.40;;
69334;SDS011;56477;52.742;15.242;2022-11-18T04:56:37;34.53;;;12.63;;
69334;SDS011;56477;52.742;15.242;2022-11-18T04:59:03;29.13;;;11.37;;
69334;SDS011;56477;52.742;15.242;2022-11-18T05:01:30;28.45;;;11.40;;
69334;SDS011;56477;52.742;15.242;2022-11-18T05:03:56;28.42;;;12.40;;
69334;SDS011;56477;52.742;15.242;2022-11-18T05:06:25;35.83;;;12.57;;
69334;SDS011;56477;52.742;15.242;2022-11-18T05:08:52;27.00;;;9.70;;
69334;SDS011;56477;52.742;15.242;2022-11-18T05:11:18;31.30;;;14.10;;
69334;SDS011;56477;52.742;15.242;2022-11-18T05:14:03;31.95;;;12.75;;
69334;SDS011;56477;52.742;15.242;2022-11-18T05:16:29;30.55;;;11.88;;
69334;SDS011;56477;52.742;15.242;2022-11-18T05:18:56;31.00;;;10.50;;
69334;SDS011;56477;52.742;15.242;2022-11-18T05:21:21;34.77;;;12.57;;
69334;SDS011;56477;52.742;15.242;2022-11-18T05:23:48;16.67;;;6.38;;
69334;SDS011;56477;52.742;15.242;2022-11-18T05:26:14;32.65;;;12.77;;
69334;SDS011;56477;52.742;15.242;2022-11-18T05:28:40;30.70;;;11.75;;
69334;SDS011;56477;52.742;15.242;2022-11-18T05:31:13;21.70;;;10.43;;
69334;SDS011;56477;52.742;15.242;2022-11-18T05:33:41;23.55;;;8.88;;
69334;SDS011;56477;52.742;15.242;2022-11-18T05:36:08;25.00;;;10.07;;
69334;SDS011;56477;52.742;15.242;2022-11-18T05:38:37;27.15;;;9.48;;
69334;SDS011;56477;52.742;15.242;2022-11-18T05:41:04;22.17;;;9.13;;
69334;SDS011;56477;52.742;15.242;2022-11-18T05:43:31;30.83;;;11.87;;
69334;SDS011;56477;52.742;15.242;2022-11-18T05:45:57;27.73;;;10.63;;
69334;SDS011;56477;52.742;15.242;2022-11-18T05:48:24;22.58;;;9.25;;
69334;SDS011;56477;52.742;15.242;2022-11-18T05:50:51;23.65;;;9.05;;
69334;SDS011;56477;52.742;15.242;2022-11-18T05:53:19;23.33;;;8.45;;
69334;SDS011;56477;52.742;15.242;2022-11-18T05:56:32;22.80;;;8.50;;
69334;SDS011;56477;52.742;15.242;2022-11-18T05:58:42;26.17;;;9.45;;
69334;SDS011;56477;52.742;15.242;2022-11-18T06:01:08;19.42;;;8.43;;
69334;SDS011;56477;52.742;15.242;2022-11-18T06:03:39;20.30;;;7.78;;
69334;SDS011;56477;52.742;15.242;2022-11-18T06:06:06;17.13;;;7.25;;
69334;SDS011;56477;52.742;15.242;2022-11-18T06:08:38;17.53;;;5.73;;
69334;SDS011;56477;52.742;15.242;2022-11-18T06:11:10;18.30;;;7.05;;
69334;SDS011;56477;52.742;15.242;2022-11-18T06:13:40;20.83;;;6.40;;
69334;SDS011;56477;52.742;15.242;2022-11-18T06:16:15;13.55;;;5.40;;
69334;SDS011;56477;52.742;15.242;2022-11-18T06:18:45;17.38;;;7.32;;
69334;SDS011;56477;52.742;15.242;2022-11-18T06:21:11;17.40;;;6.30;;
69334;SDS011;56477;52.742;15.242;2022-11-18T06:23:38;16.65;;;7.10;;
69334;SDS011;56477;52.742;15.242;2022-11-18T06:26:06;12.45;;;4.88;;
69334;SDS011;56477;52.742;15.242;2022-11-18T06:28:34;14.38;;;5.25;;
69334;SDS011;56477;52.742;15.242;2022-11-18T06:31:01;10.80;;;4.82;;
69334;SDS011;56477;52.742;15.242;2022-11-18T06:33:27;12.50;;;5.27;;
69334;SDS011;56477;52.742;15.242;2022-11-18T06:35:53;12.38;;;5.13;;
69334;SDS011;56477;52.742;15.242;2022-11-18T06:38:22;11.55;;;5.40;;
69334;SDS011;56477;52.742;15.242;2022-11-18T06:40:48;13.63;;;5.28;;
69334;SDS011;56477;52.742;15.242;2022-11-18T06:43:15;8.13;;;3.22;;
69334;SDS011;56477;52.742;15.242;2022-11-18T06:45:59;10.47;;;4.27;;
69334;SDS011;56477;52.742;15.242;2022-11-18T06:48:44;10.40;;;3.58;;
69334;SDS011;56477;52.742;15.242;2022-11-18T06:51:10;8.23;;;3.42;;
69334;SDS011;56477;52.742;15.242;2022-11-18T06:53:36;9.32;;;3.90;;
69334;SDS011;56477;52.742;15.242;2022-11-18T06:56:03;8.98;;;4.28;;
69334;SDS011;56477;52.742;15.242;2022-11-18T06:58:30;11.87;;;4.10;;
69334;SDS011;56477;52.742;15.242;2022-11-18T07:00:56;9.75;;;3.97;;
69334;SDS011;56477;52.742;15.242;2022-11-18T07:03:22;13.48;;;4.65;;
69334;SDS011;56477;52.742;15.242;2022-11-18T07:05:48;9.60;;;4.55;;
69334;SDS011;56477;52.742;15.242;2022-11-18T07:08:15;7.83;;;3.40;;
69334;SDS011;56477;52.742;15.242;2022-11-18T07:10:40;14.00;;;5.00;;
69334;SDS011;56477;52.742;15.242;2022-11-18T07:13:07;13.07;;;5.25;;
69334;SDS011;56477;52.742;15.242;2022-11-18T07:15:33;10.30;;;4.30;;
69334;SDS011;56477;52.742;15.242;2022-11-18T07:17:59;8.23;;;3.67;;
69334;SDS011;56477;52.742;15.242;2022-11-18T07:20:24;7.25;;;2.88;;
69334;SDS011;56477;52.742;15.242;2022-11-18T07:22:51;14.75;;;4.80;;
69334;SDS011;56477;52.742;15.242;2022-11-18T07:25:18;10.93;;;4.25;;
69334;SDS011;56477;52.742;15.242;2022-11-18T07:27:44;10.70;;;4.13;;
69334;SDS011;56477;52.742;15.242;2022-11-18T07:30:11;10.73;;;3.85;;
69334;SDS011;56477;52.742;15.242;2022-11-18T07:32:37;9.70;;;3.38;;
69334;SDS011;56477;52.742;15.242;2022-11-18T07:35:03;10.98;;;3.97;;
69334;SDS011;56477;52.742;15.242;2022-11-18T07:37:30;9.47;;;3.23;;
69334;SDS011;56477;52.742;15.242;2022-11-18T07:39:55;7.93;;;3.70;;
69334;SDS011;56477;52.742;15.242;2022-11-18T07:42:24;9.25;;;4.03;;
69334;SDS011;56477;52.742;15.242;2022-11-18T07:44:50;11.88;;;3.38;;
69334;SDS011;56477;52.742;15.242;2022-11-18T07:47:16;7.30;;;2.73;;
69334;SDS011;56477;52.742;15.242;2022-11-18T07:49:42;9.65;;;3.50;;
69334;SDS011;56477;52.742;15.242;2022-11-18T07:52:08;7.85;;;3.50;;
69334;SDS011;56477;52.742;15.242;2022-11-18T07:54:34;9.30;;;3.72;;
69334;SDS011;56477;52.742;15.242;2022-11-18T07:57:01;10.77;;;3.73;;
69334;SDS011;56477;52.742;15.242;2022-11-18T07:59:26;10.43;;;3.85;;
69334;SDS011;56477;52.742;15.242;2022-11-18T08:01:53;10.52;;;4.07;;
69334;SDS011;56477;52.742;15.242;2022-11-18T08:04:19;11.90;;;4.60;;
69334;SDS011;56477;52.742;15.242;2022-11-18T08:06:45;10.40;;;3.80;;
69334;SDS011;56477;52.742;15.242;2022-11-18T08:09:11;8.70;;;3.03;;
69334;SDS011;56477;52.742;15.242;2022-11-18T08:11:37;12.55;;;4.57;;
69334;SDS011;56477;52.742;15.242;2022-11-18T08:14:05;11.40;;;4.18;;
69334;SDS011;56477;52.742;15.242;2022-11-18T08:16:31;10.50;;;4.55;;
69334;SDS011;56477;52.742;15.242;2022-11-18T08:18:57;11.13;;;4.20;;
69334;SDS011;56477;52.742;15.242;2022-11-18T08:21:25;11.15;;;4.15;;
69334;SDS011;56477;52.742;15.242;2022-11-18T08:23:52;7.80;;;2.65;;
69334;SDS011;56477;52.742;15.242;2022-11-18T08:26:19;11.98;;;4.38;;
69334;SDS011;56477;52.742;15.242;2022-11-18T08:28:46;10.90;;;3.67;;
69334;SDS011;56477;52.742;15.242;2022-11-18T08:31:14;8.95;;;2.92;;
69334;SDS011;56477;52.742;15.242;2022-11-18T08:33:42;12.05;;;4.05;;
69334;SDS011;56477;52.742;15.242;2022-11-18T08:36:09;9.05;;;3.28;;
69334;SDS011;56477;52.742;15.242;2022-11-18T08:38:38;9.73;;;4.18;;
69334;SDS011;56477;52.742;15.242;2022-11-18T08:41:05;11.83;;;4.50;;
69334;SDS011;56477;52.742;15.242;2022-11-18T08:43:33;11.57;;;4.25;;
69334;SDS011;56477;52.742;15.242;2022-11-18T08:46:00;13.40;;;5.35;;
69334;SDS011;56477;52.742;15.242;2022-11-18T08:48:26;11.73;;;3.95;;
69334;SDS011;56477;52.742;15.242;2022-11-18T08:50:52;12.57;;;3.65;;
69334;SDS011;56477;52.742;15.242;2022-11-18T08:53:19;14.50;;;4.67;;
69334;SDS011;56477;52.742;15.242;2022-11-18T08:55:45;10.85;;;3.80;;
69334;SDS011;56477;52.742;15.242;2022-11-18T08:58:11;9.68;;;2.88;;
69334;SDS011;56477;52.742;15.242;2022-11-18T09:00:37;13.55;;;4.00;;
69334;SDS011;56477;52.742;15.242;2022-11-18T09:03:03;11.93;;;4.27;;
69334;SDS011;56477;52.742;15.242;2022-11-18T09:05:29;10.70;;;4.60;;
69334;SDS011;56477;52.742;15.242;2022-11-18T09:07:55;12.02;;;5.00;;
69334;SDS011;56477;52.742;15.242;2022-11-18T09:10:21;12.02;;;4.30;;
69334;SDS011;56477;52.742;15.242;2022-11-18T09:12:47;8.50;;;3.90;;
69334;SDS011;56477;52.742;15.242;2022-11-18T09:15:14;10.88;;;3.90;;
69334;SDS011;56477;52.742;15.242;2022-11-18T09:17:39;9.65;;;3.50;;
69334;SDS011;56477;52.742;15.242;2022-11-18T09:20:16;11.40;;;4.35;;
69334;SDS011;56477;52.742;15.242;2022-11-18T09:22:42;9.23;;;3.87;;
69334;SDS011;56477;52.742;15.242;2022-11-18T09:25:08;9.50;;;4.03;;
69334;SDS011;56477;52.742;15.242;2022-11-18T09:27:34;11.05;;;3.92;;
69334;SDS011;56477;52.742;15.242;2022-11-18T09:30:00;13.02;;;4.57;;
69334;SDS011;56477;52.742;15.242;2022-11-18T09:32:26;9.95;;;3.45;;
69334;SDS011;56477;52.742;15.242;2022-11-18T09:34:53;9.67;;;3.50;;
69334;SDS011;56477;52.742;15.242;2022-11-18T09:37:19;11.02;;;3.05;;
69334;SDS011;56477;52.742;15.242;2022-11-18T09:39:45;6.68;;;2.17;;
69334;SDS011;56477;52.742;15.242;2022-11-18T09:47:48;8.05;;;2.55;;
69334;SDS011;56477;52.742;15.242;2022-11-18T09:50:20;9.98;;;4.10;;
69334;SDS011;56477;52.742;15.242;2022-11-18T09:55:28;9.93;;;3.33;;
69334;SDS011;56477;52.742;15.242;2022-11-18T09:57:55;10.80;;;4.05;;
69334;SDS011;56477;52.742;15.242;2022-11-18T10:00:24;6.25;;;3.15;;
69334;SDS011;56477;52.742;15.242;2022-11-18T10:03:06;8.10;;;3.72;;
69334;SDS011;56477;52.742;15.242;2022-11-18T10:05:54;9.10;;;3.55;;
69334;SDS011;56477;52.742;15.242;2022-11-18T10:10:59;8.10;;;3.40;;
69334;SDS011;56477;52.742;15.242;2022-11-18T10:18:47;8.82;;;3.53;;
69334;SDS011;56477;52.742;15.242;2022-11-18T10:24:14;5.97;;;1.92;;
69334;SDS011;56477;52.742;15.242;2022-11-18T10:26:44;6.82;;;2.53;;
69334;SDS011;56477;52.742;15.242;2022-11-18T10:29:10;5.15;;;2.17;;
69334;SDS011;56477;52.742;15.242;2022-11-18T10:31:51;7.80;;;2.50;;
69334;SDS011;56477;52.742;15.242;2022-11-18T10:34:28;6.63;;;2.43;;
69334;SDS011;56477;52.742;15.242;2022-11-18T10:37:05;7.03;;;2.58;;
69334;SDS011;56477;52.742;15.242;2022-11-18T10:39:46;6.85;;;2.47;;
69334;SDS011;56477;52.742;15.242;2022-11-18T10:42:16;7.80;;;2.80;;
69334;SDS011;56477;52.742;15.242;2022-11-18T10:44:50;6.70;;;2.13;;
69334;SDS011;56477;52.742;15.242;2022-11-18T10:49:58;7.30;;;2.25;;
69334;SDS011;56477;52.742;15.242;2022-11-18T10:52:27;8.80;;;2.28;;
69334;SDS011;56477;52.742;15.242;2022-11-18T10:55:08;6.50;;;3.08;;
69334;SDS011;56477;52.742;15.242;2022-11-18T10:57:44;7.05;;;2.22;;
69334;SDS011;56477;52.742;15.242;2022-11-18T11:08:50;6.18;;;2.30;;
69334;SDS011;56477;52.742;15.242;2022-11-18T11:11:30;10.10;;;1.90;;
69334;SDS011;56477;52.742;15.242;2022-11-18T11:14:23;6.47;;;2.20;;
69334;SDS011;56477;52.742;15.242;2022-11-18T11:19:49;6.13;;;2.85;;
69334;SDS011;56477;52.742;15.242;2022-11-18T11:22:20;6.72;;;2.30;;
69334;SDS011;56477;52.742;15.242;2022-11-18T11:24:46;6.35;;;1.50;;
69334;SDS011;56477;52.742;15.242;2022-11-18T11:37:59;5.63;;;2.50;;
69334;SDS011;56477;52.742;15.242;2022-11-18T11:44:11;5.88;;;1.92;;
69334;SDS011;56477;52.742;15.242;2022-11-18T11:50:18;4.60;;;1.95;;
69334;SDS011;56477;52.742;15.242;2022-11-18T12:06:52;5.45;;;2.75;;
69334;SDS011;56477;52.742;15.242;2022-11-18T12:11:50;4.90;;;2.03;;
69334;SDS011;56477;52.742;15.242;2022-11-18T12:19:30;4.97;;;2.25;;
69334;SDS011;56477;52.742;15.242;2022-11-18T12:22:03;7.70;;;2.37;;
69334;SDS011;56477;52.742;15.242;2022-11-18T12:24:33;4.15;;;1.50;;
69334;SDS011;56477;52.742;15.242;2022-11-18T12:27:03;4.88;;;2.33;;
69334;SDS011;56477;52.742;15.242;2022-11-18T12:29:37;4.30;;;1.90;;
69334;SDS011;56477;52.742;15.242;2022-11-18T12:32:40;6.40;;;2.17;;
69334;SDS011;56477;52.742;15.242;2022-11-18T12:45:45;6.32;;;2.70;;
69334;SDS011;56477;52.742;15.242;2022-11-18T12:50:49;4.07;;;1.65;;
69334;SDS011;56477;52.742;15.242;2022-11-18T12:56:11;4.82;;;2.20;;
69334;SDS011;56477;52.742;15.242;2022-11-18T12:58:45;5.75;;;2.10;;
69334;SDS011;56477;52.742;15.242;2022-11-18T13:01:14;7.37;;;2.50;;
69334;SDS011;56477;52.742;15.242;2022-11-18T13:03:45;6.80;;;2.45;;
69334;SDS011;56477;52.742;15.242;2022-11-18T13:06:25;5.43;;;2.40;;
69334;SDS011;56477;52.742;15.242;2022-11-18T13:08:55;6.35;;;2.60;;
69334;SDS011;56477;52.742;15.242;2022-11-18T13:11:24;7.22;;;2.95;;
69334;SDS011;56477;52.742;15.242;2022-11-18T13:14:14;5.93;;;2.10;;
69334;SDS011;56477;52.742;15.242;2022-11-18T13:17:14;6.60;;;2.67;;
69334;SDS011;56477;52.742;15.242;2022-11-18T13:20:26;6.18;;;2.83;;
69334;SDS011;56477;52.742;15.242;2022-11-18T13:25:54;6.88;;;2.92;;
69334;SDS011;56477;52.742;15.242;2022-11-18T13:33:33;6.82;;;2.20;;
69334;SDS011;56477;52.742;15.242;2022-11-18T13:36:01;5.97;;;2.38;;
69334;SDS011;56477;52.742;15.242;2022-11-18T13:38:27;6.68;;;3.20;;
69334;SDS011;56477;52.742;15.242;2022-11-18T13:40:53;6.33;;;2.10;;
69334;SDS011;56477;52.742;15.242;2022-11-18T13:43:33;6.47;;;2.08;;
69334;SDS011;56477;52.742;15.242;2022-11-18T13:45:59;6.10;;;2.10;;
69334;SDS011;56477;52.742;15.242;2022-11-18T13:48:29;6.15;;;2.58;;
69334;SDS011;56477;52.742;15.242;2022-11-18T13:50:58;6.07;;;2.20;;
69334;SDS011;56477;52.742;15.242;2022-11-18T13:58:31;7.35;;;2.58;;
69334;SDS011;56477;52.742;15.242;2022-11-18T14:01:14;8.27;;;2.65;;
69334;SDS011;56477;52.742;15.242;2022-11-18T14:12:05;7.65;;;2.53;;
69334;SDS011;56477;52.742;15.242;2022-11-18T14:14:46;8.20;;;2.60;;
69334;SDS011;56477;52.742;15.242;2022-11-18T14:19:45;12.10;;;4.13;;
69334;SDS011;56477;52.742;15.242;2022-11-18T14:22:19;8.40;;;2.67;;
69334;SDS011;56477;52.742;15.242;2022-11-18T14:24:57;7.00;;;2.35;;
69334;SDS011;56477;52.742;15.242;2022-11-18T14:27:36;9.88;;;2.88;;
69334;SDS011;56477;52.742;15.242;2022-11-18T14:33:20;8.98;;;2.58;;
69334;SDS011;56477;52.742;15.242;2022-11-18T14:35:54;11.18;;;2.70;;
69334;SDS011;56477;52.742;15.242;2022-11-18T14:38:28;7.15;;;2.70;;
69334;SDS011;56477;52.742;15.242;2022-11-18T14:41:03;6.57;;;1.73;;
69334;SDS011;56477;52.742;15.242;2022-11-18T14:43:32;6.10;;;1.80;;
69334;SDS011;56477;52.742;15.242;2022-11-18T14:46:02;6.70;;;2.05;;
69334;SDS011;56477;52.742;15.242;2022-11-18T14:48:31;6.13;;;2.55;;
69334;SDS011;56477;52.742;15.242;2022-11-18T14:50:57;7.47;;;2.63;;
69334;SDS011;56477;52.742;15.242;2022-11-18T14:53:24;7.47;;;2.40;;
69334;SDS011;56477;52.742;15.242;2022-11-18T14:55:51;6.97;;;2.03;;
69334;SDS011;56477;52.742;15.242;2022-11-18T14:58:19;6.68;;;1.85;;
69334;SDS011;56477;52.742;15.242;2022-11-18T15:00:47;6.47;;;2.33;;
69334;SDS011;56477;52.742;15.242;2022-11-18T15:03:14;7.68;;;2.17;;
69334;SDS011;56477;52.742;15.242;2022-11-18T15:05:40;7.63;;;2.28;;
69334;SDS011;56477;52.742;15.242;2022-11-18T15:08:06;8.67;;;2.40;;
69334;SDS011;56477;52.742;15.242;2022-11-18T15:10:33;7.20;;;2.92;;
69334;SDS011;56477;52.742;15.242;2022-11-18T15:13:00;7.70;;;2.72;;
69334;SDS011;56477;52.742;15.242;2022-11-18T15:15:26;10.32;;;2.90;;
69334;SDS011;56477;52.742;15.242;2022-11-18T15:17:52;10.80;;;3.65;;
69334;SDS011;56477;52.742;15.242;2022-11-18T15:20:21;10.90;;;4.83;;
69334;SDS011;56477;52.742;15.242;2022-11-18T15:22:47;10.50;;;3.58;;
69334;SDS011;56477;52.742;15.242;2022-11-18T15:25:14;8.95;;;2.58;;
69334;SDS011;56477;52.742;15.242;2022-11-18T15:27:40;13.38;;;3.20;;
69334;SDS011;56477;52.742;15.242;2022-11-18T15:30:06;9.17;;;2.47;;
69334;SDS011;56477;52.742;15.242;2022-11-18T15:32:33;11.63;;;3.40;;
69334;SDS011;56477;52.742;15.242;2022-11-18T15:34:59;11.02;;;2.72;;
69334;SDS011;56477;52.742;15.242;2022-11-18T15:37:25;9.93;;;3.55;;
69334;SDS011;56477;52.742;15.242;2022-11-18T15:39:51;10.13;;;3.22;;
69334;SDS011;56477;52.742;15.242;2022-11-18T15:42:17;11.23;;;3.30;;
69334;SDS011;56477;52.742;15.242;2022-11-18T15:44:44;16.98;;;4.40;;
69334;SDS011;56477;52.742;15.242;2022-11-18T15:47:10;23.38;;;5.13;;
69334;SDS011;56477;52.742;15.242;2022-11-18T15:49:37;22.75;;;5.85;;
69334;SDS011;56477;52.742;15.242;2022-11-18T15:52:10;26.52;;;8.80;;
69334;SDS011;56477;52.742;15.242;2022-11-18T15:54:37;19.63;;;5.57;;
69334;SDS011;56477;52.742;15.242;2022-11-18T15:57:03;14.00;;;3.70;;
69334;SDS011;56477;52.742;15.242;2022-11-18T15:59:30;9.75;;;3.58;;
69334;SDS011;56477;52.742;15.242;2022-11-18T16:01:56;24.63;;;6.93;;
69334;SDS011;56477;52.742;15.242;2022-11-18T16:04:22;45.73;;;13.13;;
69334;SDS011;56477;52.742;15.242;2022-11-18T16:06:48;64.75;;;19.10;;
69334;SDS011;56477;52.742;15.242;2022-11-18T16:09:15;30.35;;;8.70;;
69334;SDS011;56477;52.742;15.242;2022-11-18T16:11:41;17.23;;;5.15;;
69334;SDS011;56477;52.742;15.242;2022-11-18T16:14:26;20.98;;;4.82;;
69334;SDS011;56477;52.742;15.242;2022-11-18T16:16:52;21.17;;;5.10;;
69334;SDS011;56477;52.742;15.242;2022-11-18T16:19:21;21.08;;;5.53;;
69334;SDS011;56477;52.742;15.242;2022-11-18T16:21:53;24.73;;;7.30;;
69334;SDS011;56477;52.742;15.242;2022-11-18T16:24:22;30.50;;;7.78;;
69334;SDS011;56477;52.742;15.242;2022-11-18T16:26:49;36.75;;;9.85;;
69334;SDS011;56477;52.742;15.242;2022-11-18T16:29:16;36.80;;;8.47;;
69334;SDS011;56477;52.742;15.242;2022-11-18T16:31:44;56.22;;;14.27;;
69334;SDS011;56477;52.742;15.242;2022-11-18T16:34:16;73.53;;;18.83;;
69334;SDS011;56477;52.742;15.242;2022-11-18T16:36:48;56.85;;;17.05;;
69334;SDS011;56477;52.742;15.242;2022-11-18T16:39:17;53.33;;;14.43;;
69334;SDS011;56477;52.742;15.242;2022-11-18T16:41:47;41.40;;;11.13;;
69334;SDS011;56477;52.742;15.242;2022-11-18T16:44:14;34.88;;;8.82;;
69334;SDS011;56477;52.742;15.242;2022-11-18T16:46:47;27.00;;;7.10;;
69334;SDS011;56477;52.742;15.242;2022-11-18T16:49:16;21.90;;;7.03;;
69334;SDS011;56477;52.742;15.242;2022-11-18T16:51:44;18.42;;;6.07;;
69334;SDS011;56477;52.742;15.242;2022-11-18T16:54:15;15.33;;;6.40;;
69334;SDS011;56477;52.742;15.242;2022-11-18T16:56:43;9.48;;;3.40;;
69334;SDS011;56477;52.742;15.242;2022-11-18T16:59:14;10.57;;;3.70;;
69334;SDS011;56477;52.742;15.242;2022-11-18T17:01:48;9.43;;;3.03;;
69334;SDS011;56477;52.742;15.242;2022-11-18T17:04:16;11.20;;;3.20;;
69334;SDS011;56477;52.742;15.242;2022-11-18T17:06:43;9.83;;;3.50;;